createdAt,value
2023-04-09T00:01:29.871Z,3.86
2023-04-09T00:03:56.403Z,3.86
2023-04-09T00:06:22.963Z,3.62
2023-04-09T00:08:49.590Z,3.56
2023-04-09T00:11:16.161Z,3.48
2023-04-09T00:13:42.577Z,3.69
2023-04-09T00:16:09.238Z,3.76
2023-04-09T00:18:36.168Z,3.70
2023-04-09T00:21:02.666Z,3.54
2023-04-09T00:23:29.195Z,3.61
2023-04-09T00:25:55.627Z,3.64
2023-04-09T00:28:22.064Z,3.71
2023-04-09T00:30:48.528Z,3.63
2023-04-09T00:33:14.946Z,3.57
2023-04-09T00:35:41.410Z,3.78
2023-04-09T00:38:07.875Z,3.71
2023-04-09T00:40:34.291Z,3.62
2023-04-09T00:43:01.060Z,3.43
2023-04-09T00:45:27.655Z,3.49
2023-04-09T00:47:54.516Z,3.74
2023-04-09T00:50:21.483Z,3.90
2023-04-09T00:52:47.995Z,4.09
2023-04-09T00:55:15.341Z,4.15
2023-04-09T00:57:41.834Z,4.10
2023-04-09T01:00:09.740Z,4.30
2023-04-09T01:02:36.584Z,4.27
2023-04-09T01:05:03.611Z,4.29
2023-04-09T01:07:54.278Z,4.01
2023-04-09T01:10:43.741Z,4.07
2023-04-09T01:13:33.248Z,4.07
2023-04-09T01:16:02.375Z,4.10
2023-04-09T01:18:42.416Z,4.08
2023-04-09T01:21:14.855Z,4.20
2023-04-09T01:24:21.141Z,4.24
2023-04-09T01:27:07.209Z,4.44
2023-04-09T01:29:46.434Z,4.72
2023-04-09T01:32:16.560Z,4.77
2023-04-09T01:34:46.529Z,4.91
2023-04-09T01:37:15.071Z,5.06
2023-04-09T01:39:42.104Z,5.12
2023-04-09T01:42:12.204Z,5.10
2023-04-09T01:44:41.062Z,5.19
2023-04-09T01:47:09.135Z,5.32
2023-04-09T01:49:36.290Z,5.45
2023-04-09T01:52:03.235Z,5.44
2023-04-09T01:54:29.689Z,5.48
2023-04-09T01:56:58.175Z,5.53
2023-04-09T01:59:24.662Z,5.47
2023-04-09T02:02:05.709Z,5.49
2023-04-09T02:04:43.746Z,5.41
2023-04-09T02:07:25.842Z,5.47
2023-04-09T02:09:54.380Z,5.47
2023-04-09T02:12:21.748Z,5.50
2023-04-09T02:14:51.611Z,5.47
2023-04-09T02:17:18.668Z,5.61
2023-04-09T02:19:47.629Z,5.60
2023-04-09T02:22:15.313Z,5.68
2023-04-09T02:24:41.804Z,5.73
2023-04-09T02:27:08.828Z,5.79
2023-04-09T02:29:35.301Z,5.97
2023-04-09T02:32:01.850Z,5.89
2023-04-09T02:34:28.362Z,5.90
2023-04-09T02:36:54.915Z,5.80
2023-04-09T02:39:21.405Z,5.84
2023-04-09T02:41:47.806Z,5.76
2023-04-09T02:44:14.249Z,5.79
2023-04-09T02:46:41.811Z,6.02
2023-04-09T02:49:08.293Z,6.12
2023-04-09T02:51:37.672Z,6.08
2023-04-09T02:54:04.312Z,6.02
2023-04-09T02:56:30.781Z,6.12
2023-04-09T02:58:57.222Z,6.16
2023-04-09T03:01:23.699Z,6.19
2023-04-09T03:03:50.400Z,6.20
2023-04-09T03:06:18.358Z,6.18
2023-04-09T03:08:44.861Z,6.15
2023-04-09T03:11:11.303Z,6.15
2023-04-09T03:13:37.806Z,6.09
2023-04-09T03:16:04.636Z,6.16
2023-04-09T03:18:31.311Z,6.17
2023-04-09T03:20:57.836Z,6.23
2023-04-09T03:23:24.264Z,6.25
2023-04-09T03:26:00.321Z,6.28
2023-04-09T03:28:26.757Z,6.16
2023-04-09T03:30:53.289Z,6.18
2023-04-09T03:33:19.886Z,6.06
2023-04-09T03:35:46.360Z,6.09
2023-04-09T03:38:12.809Z,6.13
2023-04-09T03:40:39.272Z,6.15
2023-04-09T03:43:05.676Z,6.22
2023-04-09T03:45:32.093Z,6.20
2023-04-09T03:47:58.543Z,6.14
2023-04-09T03:50:24.958Z,6.19
2023-04-09T03:52:51.422Z,6.21
2023-04-09T03:55:17.860Z,6.20
2023-04-09T03:57:44.246Z,6.14
2023-04-09T04:00:11.301Z,6.21
2023-04-09T04:02:38.128Z,6.22
2023-04-09T04:05:04.956Z,6.14
2023-04-09T04:07:32.773Z,6.17
2023-04-09T04:09:59.230Z,6.10
2023-04-09T04:12:25.742Z,6.11
2023-04-09T04:14:52.122Z,6.18
2023-04-09T04:17:18.572Z,6.21
2023-04-09T04:19:45.178Z,6.19
2023-04-09T04:22:11.675Z,6.21
2023-04-09T04:24:38.098Z,6.18
2023-04-09T04:27:04.581Z,6.10
2023-04-09T04:29:31.000Z,6.13
2023-04-09T04:31:57.541Z,6.05
2023-04-09T04:34:24.217Z,6.17
2023-04-09T04:36:50.825Z,6.09
2023-04-09T04:39:17.364Z,6.08
2023-04-09T04:41:43.757Z,6.11
2023-04-09T04:44:10.180Z,5.99
2023-04-09T04:46:36.632Z,5.98
2023-04-09T04:49:03.055Z,5.95
2023-04-09T04:51:31.845Z,6.03
2023-04-09T04:53:58.250Z,6.03
2023-04-09T04:56:24.667Z,6.06
2023-04-09T04:58:51.348Z,5.98
2023-04-09T05:01:18.117Z,5.97
2023-04-09T05:03:44.644Z,6.02
2023-04-09T05:06:11.083Z,5.84
2023-04-09T05:08:37.536Z,5.88
2023-04-09T05:11:03.981Z,5.94
2023-04-09T05:13:30.446Z,6.06
2023-04-09T05:15:56.906Z,6.04
2023-04-09T05:18:23.294Z,5.92
2023-04-09T05:20:49.691Z,5.98
2023-04-09T05:23:16.292Z,5.99
2023-04-09T05:25:42.835Z,6.06
2023-04-09T05:28:11.156Z,6.08
2023-04-09T05:30:37.766Z,6.18
2023-04-09T05:33:04.402Z,6.11
2023-04-09T05:35:30.860Z,6.18
2023-04-09T05:37:57.403Z,6.05
2023-04-09T05:40:23.966Z,6.08
2023-04-09T05:42:50.398Z,6.15
2023-04-09T05:45:16.837Z,6.14
2023-04-09T05:47:43.293Z,6.18
2023-04-09T05:50:10.140Z,6.25
2023-04-09T05:52:36.652Z,6.14
2023-04-09T05:55:03.412Z,6.17
2023-04-09T05:57:31.048Z,6.17
2023-04-09T05:59:57.560Z,6.19
2023-04-09T06:02:25.135Z,6.23
2023-04-09T06:04:51.812Z,6.19
2023-04-09T06:07:18.430Z,6.17
2023-04-09T06:09:46.704Z,6.18
2023-04-09T06:12:13.499Z,6.08
2023-04-09T06:14:39.936Z,6.02
2023-04-09T06:17:06.377Z,6.11
2023-04-09T06:19:32.887Z,6.12
2023-04-09T06:21:59.324Z,6.15
2023-04-09T06:24:25.993Z,6.04
2023-04-09T06:26:52.415Z,5.79
2023-04-09T06:29:18.880Z,6.08
2023-04-09T06:31:45.273Z,6.05
2023-04-09T06:34:11.712Z,6.00
2023-04-09T06:36:40.310Z,6.11
2023-04-09T06:39:07.398Z,6.10
2023-04-09T06:41:33.873Z,5.89
2023-04-09T06:44:00.577Z,5.88
2023-04-09T06:46:27.509Z,6.08
2023-04-09T06:48:54.381Z,6.18
2023-04-09T06:51:20.842Z,6.15
2023-04-09T06:53:48.181Z,6.16
2023-04-09T06:56:14.911Z,6.00
2023-04-09T06:58:41.410Z,6.13
2023-04-09T07:01:07.899Z,6.26
2023-04-09T07:03:34.726Z,6.22
2023-04-09T07:06:01.320Z,6.18
2023-04-09T07:08:28.584Z,6.28
2023-04-09T07:10:55.016Z,6.25
2023-04-09T07:13:21.593Z,6.32
2023-04-09T07:15:48.170Z,5.90
2023-04-09T07:18:14.626Z,6.06
2023-04-09T07:20:41.042Z,6.20
2023-04-09T07:23:07.474Z,6.25
2023-04-09T07:25:34.084Z,6.36
2023-04-09T07:28:00.561Z,6.30
2023-04-09T07:30:27.389Z,6.32
2023-04-09T07:32:54.093Z,6.27
2023-04-09T07:35:20.798Z,6.34
2023-04-09T07:37:47.321Z,6.30
2023-04-09T07:40:13.853Z,6.32
2023-04-09T07:42:40.669Z,6.45
2023-04-09T07:45:07.564Z,6.37
2023-04-09T07:47:34.006Z,6.46
2023-04-09T07:50:00.660Z,6.47
2023-04-09T07:52:27.087Z,6.54
2023-04-09T07:54:53.546Z,6.48
2023-04-09T07:57:20.020Z,6.42
2023-04-09T07:59:46.666Z,6.42
2023-04-09T08:02:15.372Z,6.32
2023-04-09T08:04:42.513Z,6.42
2023-04-09T08:07:09.250Z,6.43
2023-04-09T08:09:35.781Z,6.40
2023-04-09T08:12:02.466Z,6.54
2023-04-09T08:14:28.931Z,6.53
2023-04-09T08:16:55.565Z,6.54
2023-04-09T08:19:22.113Z,6.58
2023-04-09T08:21:49.500Z,6.57
2023-04-09T08:24:16.344Z,6.64
2023-04-09T08:26:43.373Z,6.63
2023-04-09T08:29:11.394Z,6.69
2023-04-09T08:31:38.069Z,6.68
2023-04-09T08:34:05.006Z,6.77
2023-04-09T08:36:32.473Z,6.79
2023-04-09T08:39:00.448Z,6.69
2023-04-09T08:41:29.253Z,6.77
2023-04-09T08:43:58.929Z,6.85
2023-04-09T08:46:26.507Z,6.89
2023-04-09T08:48:53.616Z,6.90
2023-04-09T08:51:22.162Z,6.89
2023-04-09T08:53:53.371Z,6.96
2023-04-09T08:56:21.828Z,6.85
2023-04-09T08:58:48.571Z,6.81
2023-04-09T09:01:32.089Z,6.82
2023-04-09T09:04:07.218Z,6.81
2023-04-09T09:06:38.638Z,6.72
2023-04-09T09:09:05.516Z,6.75
2023-04-09T09:11:33.449Z,6.76
2023-04-09T09:14:01.600Z,6.73
2023-04-09T09:16:28.546Z,6.86
2023-04-09T09:18:58.633Z,7.00
2023-04-09T09:21:26.318Z,6.84
2023-04-09T09:23:52.902Z,6.90
2023-04-09T09:26:24.519Z,6.88
2023-04-09T09:28:51.489Z,6.93
2023-04-09T09:31:20.007Z,6.96
2023-04-09T09:33:48.239Z,6.94
2023-04-09T09:36:34.941Z,6.98
2023-04-09T09:39:05.134Z,6.86
2023-04-09T09:41:31.706Z,6.94
2023-04-09T09:43:58.341Z,6.85
2023-04-09T09:46:26.212Z,6.88
2023-04-09T09:48:53.357Z,6.99
2023-04-09T09:51:25.814Z,6.70
2023-04-09T09:53:55.768Z,6.89
2023-04-09T09:56:25.087Z,6.93
2023-04-09T09:59:03.869Z,6.99
2023-04-09T10:01:30.756Z,7.08
2023-04-09T10:04:00.464Z,7.09
2023-04-09T10:06:30.128Z,7.21
2023-04-09T10:09:03.688Z,7.27
2023-04-09T10:11:33.582Z,7.16
2023-04-09T10:14:00.684Z,7.06
2023-04-09T10:16:28.089Z,7.21
2023-04-09T10:18:58.709Z,7.28
2023-04-09T10:21:36.644Z,7.13
2023-04-09T10:24:06.552Z,7.25
2023-04-09T10:26:34.269Z,7.25
2023-04-09T10:29:14.496Z,7.38
2023-04-09T10:31:47.815Z,7.36
2023-04-09T10:34:19.438Z,7.39
2023-04-09T10:36:53.430Z,7.41
2023-04-09T10:39:20.067Z,7.37
2023-04-09T10:41:48.723Z,7.27
2023-04-09T10:44:27.024Z,7.40
2023-04-09T10:46:56.704Z,7.47
2023-04-09T10:49:28.085Z,7.55
2023-04-09T10:52:03.011Z,7.51
2023-04-09T10:54:38.758Z,7.61
2023-04-09T10:57:08.045Z,7.65
2023-04-09T10:59:36.114Z,7.64
2023-04-09T11:02:03.172Z,7.79
2023-04-09T11:04:41.581Z,7.78
2023-04-09T11:07:09.364Z,7.78
2023-04-09T11:09:36.442Z,7.86
2023-04-09T11:12:03.670Z,7.82
2023-04-09T11:14:30.089Z,7.74
2023-04-09T11:16:56.551Z,7.69
2023-04-09T11:19:23.329Z,7.87
2023-04-09T11:21:50.271Z,7.79
2023-04-09T11:24:18.838Z,7.88
2023-04-09T11:26:45.864Z,8.00
2023-04-09T11:29:12.902Z,7.76
2023-04-09T11:31:39.351Z,7.84
2023-04-09T11:34:05.791Z,7.91
2023-04-09T11:36:34.617Z,7.98
2023-04-09T11:39:02.429Z,7.92
2023-04-09T11:41:36.562Z,8.18
2023-04-09T11:44:07.966Z,7.89
2023-04-09T11:46:35.669Z,8.28
2023-04-09T11:49:03.426Z,8.13
2023-04-09T11:51:35.298Z,8.32
2023-04-09T11:54:05.565Z,8.42
2023-04-09T11:56:32.996Z,8.48
2023-04-09T11:58:59.541Z,8.54
2023-04-09T12:01:32.425Z,8.58
2023-04-09T12:04:00.579Z,8.55
2023-04-09T12:06:28.484Z,8.58
2023-04-09T12:08:58.998Z,8.58
2023-04-09T12:11:32.372Z,8.50
2023-04-09T12:14:02.993Z,8.78
2023-04-09T12:16:34.298Z,8.74
2023-04-09T12:19:08.027Z,8.87
2023-04-09T12:21:49.573Z,8.91
2023-04-09T12:24:17.461Z,8.98
2023-04-09T12:26:45.419Z,9.09
2023-04-09T12:29:13.236Z,8.90
2023-04-09T12:31:39.799Z,9.16
2023-04-09T12:34:06.719Z,9.16
2023-04-09T12:36:33.111Z,9.06
2023-04-09T12:38:59.639Z,9.30
2023-04-09T12:41:26.158Z,9.14
2023-04-09T12:43:52.931Z,9.36
2023-04-09T12:46:19.749Z,9.43
2023-04-09T12:48:47.311Z,9.32
2023-04-09T12:51:14.287Z,9.25
2023-04-09T12:53:40.892Z,9.39
2023-04-09T12:56:07.896Z,9.34
2023-04-09T12:58:35.506Z,9.42
2023-04-09T13:01:04.105Z,9.36
2023-04-09T13:03:30.793Z,9.53
2023-04-09T13:05:57.649Z,9.52
2023-04-09T13:08:24.120Z,9.34
2023-04-09T13:10:50.671Z,9.55
2023-04-09T13:13:17.115Z,9.57
2023-04-09T13:15:43.637Z,9.71
2023-04-09T13:18:10.469Z,9.79
2023-04-09T13:20:37.301Z,9.82
2023-04-09T13:23:03.833Z,9.74
2023-04-09T13:25:30.406Z,9.60
2023-04-09T13:27:56.804Z,9.59
2023-04-09T13:30:23.529Z,9.54
2023-04-09T13:32:49.959Z,9.60
2023-04-09T13:35:16.446Z,9.64
2023-04-09T13:37:42.958Z,9.70
2023-04-09T13:40:09.641Z,9.61
2023-04-09T13:42:37.511Z,9.34
2023-04-09T13:45:04.880Z,9.33
2023-04-09T13:47:31.646Z,9.39
2023-04-09T13:49:58.119Z,9.33
2023-04-09T13:52:26.831Z,9.34
2023-04-09T13:54:56.183Z,9.55
2023-04-09T13:57:22.642Z,9.49
2023-04-09T13:59:49.656Z,9.57
2023-04-09T14:02:17.969Z,9.65
2023-04-09T14:04:44.651Z,9.68
2023-04-09T14:07:11.131Z,9.68
2023-04-09T14:09:37.523Z,9.70
2023-04-09T14:12:03.980Z,9.70
2023-04-09T14:14:30.408Z,9.81
2023-04-09T14:16:56.830Z,9.79
2023-04-09T14:19:23.271Z,9.73
2023-04-09T14:21:49.846Z,9.80
2023-04-09T14:24:16.391Z,9.80
2023-04-09T14:26:42.857Z,9.85
2023-04-09T14:29:09.324Z,9.81
2023-04-09T14:31:35.923Z,9.77
2023-04-09T14:34:02.356Z,9.88
2023-04-09T14:36:28.836Z,9.68
2023-04-09T14:38:57.841Z,9.82
2023-04-09T14:41:24.673Z,9.96
2023-04-09T14:43:51.118Z,9.83
2023-04-09T14:46:17.564Z,10.08
2023-04-09T14:48:44.059Z,10.15
2023-04-09T14:51:10.814Z,10.07
2023-04-09T14:53:37.882Z,9.98
2023-04-09T14:56:04.703Z,9.97
2023-04-09T14:58:31.426Z,10.13
2023-04-09T15:00:57.918Z,10.21
2023-04-09T15:03:24.578Z,10.32
2023-04-09T15:05:51.527Z,10.23
2023-04-09T15:08:17.970Z,10.17
2023-04-09T15:10:44.396Z,10.35
2023-04-09T15:13:10.858Z,10.37
2023-04-09T15:15:40.628Z,10.31
2023-04-09T15:18:07.014Z,10.40
2023-04-09T15:20:37.682Z,10.59
2023-04-09T15:23:04.182Z,10.63
2023-04-09T15:25:30.737Z,10.72
2023-04-09T15:27:57.408Z,10.46
2023-04-09T15:30:23.953Z,10.52
2023-04-09T15:32:50.426Z,10.70
2023-04-09T15:35:23.876Z,10.63
2023-04-09T15:37:51.199Z,10.58
2023-04-09T15:40:18.602Z,10.70
2023-04-09T15:42:45.242Z,10.68
2023-04-09T15:45:14.622Z,10.73
2023-04-09T15:47:41.141Z,10.47
2023-04-09T15:50:09.328Z,10.36
2023-04-09T15:52:36.373Z,10.73
2023-04-09T15:55:02.959Z,10.73
2023-04-09T15:57:29.476Z,10.76
2023-04-09T15:59:55.922Z,10.54
2023-04-09T16:02:24.717Z,10.70
2023-04-09T16:04:52.419Z,10.70
2023-04-09T16:07:18.901Z,10.73
2023-04-09T16:09:46.164Z,10.71
2023-04-09T16:12:12.806Z,10.67
2023-04-09T16:14:40.290Z,10.68
2023-04-09T16:17:07.010Z,10.61
2023-04-09T16:19:33.572Z,10.43
2023-04-09T16:21:59.986Z,10.29
2023-04-09T16:24:27.056Z,10.42
2023-04-09T16:26:53.576Z,10.44
2023-04-09T16:29:20.220Z,10.57
2023-04-09T16:31:46.731Z,10.64
2023-04-09T16:34:13.304Z,10.50
2023-04-09T16:36:41.457Z,10.53
2023-04-09T16:39:07.919Z,10.59
2023-04-09T16:41:36.502Z,10.54
2023-04-09T16:44:03.951Z,10.57
2023-04-09T16:46:30.745Z,10.47
2023-04-09T16:48:57.549Z,10.42
2023-04-09T16:51:23.976Z,10.36
2023-04-09T16:53:50.460Z,10.37
2023-04-09T16:56:16.992Z,10.38
2023-04-09T16:58:43.461Z,10.31
2023-04-09T17:01:10.494Z,10.31
2023-04-09T17:03:37.070Z,10.31
2023-04-09T17:06:04.660Z,10.24
2023-04-09T17:08:31.130Z,10.18
2023-04-09T17:11:02.236Z,10.03
2023-04-09T17:13:34.952Z,9.76
2023-04-09T17:16:02.787Z,9.80
2023-04-09T17:18:29.874Z,9.76
2023-04-09T17:20:56.436Z,9.83
2023-04-09T17:23:22.965Z,9.77
2023-04-09T17:25:49.548Z,9.73
2023-04-09T17:28:18.708Z,9.74
2023-04-09T17:30:45.524Z,9.73
2023-04-09T17:33:12.388Z,9.60
2023-04-09T17:35:38.952Z,9.60
2023-04-09T17:38:05.509Z,9.65
2023-04-09T17:40:31.958Z,9.66
2023-04-09T17:42:58.345Z,9.67
2023-04-09T17:45:24.866Z,9.56
2023-04-09T17:47:51.355Z,9.49
2023-04-09T17:50:18.094Z,9.40
2023-04-09T17:52:44.560Z,9.41
2023-04-09T17:55:12.338Z,9.38
2023-04-09T17:57:40.071Z,9.16
2023-04-09T18:00:08.210Z,9.16
2023-04-09T18:02:35.335Z,9.14
2023-04-09T18:05:04.743Z,9.16
2023-04-09T18:07:33.915Z,9.10
2023-04-09T18:10:01.633Z,8.83
2023-04-09T18:12:28.187Z,8.43
2023-04-09T18:14:54.765Z,8.01
2023-04-09T18:17:21.681Z,7.84
2023-04-09T18:19:49.031Z,7.66
2023-04-09T18:22:15.538Z,7.47
2023-04-09T18:24:42.007Z,7.36
2023-04-09T18:27:08.424Z,7.30
2023-04-09T18:29:34.944Z,7.40
2023-04-09T18:32:01.422Z,7.18
2023-04-09T18:34:27.831Z,6.96
2023-04-09T18:36:54.725Z,6.83
2023-04-09T18:39:22.688Z,6.67
2023-04-09T18:41:49.167Z,6.68
2023-04-09T18:44:16.424Z,6.52
2023-04-09T18:46:43.005Z,6.45
2023-04-09T18:49:09.878Z,6.45
2023-04-09T18:51:36.669Z,6.40
2023-04-09T18:54:03.409Z,6.15
2023-04-09T18:56:29.907Z,6.61
2023-04-09T18:58:56.753Z,6.81
2023-04-09T19:01:23.360Z,6.98
2023-04-09T19:03:50.002Z,7.02
2023-04-09T19:06:18.930Z,7.00
2023-04-09T19:08:50.132Z,7.02
2023-04-09T19:11:16.806Z,7.05
2023-04-09T19:13:43.273Z,7.02
2023-04-09T19:16:10.165Z,6.88
2023-04-09T19:18:37.310Z,6.87
2023-04-09T19:21:04.909Z,6.88
2023-04-09T19:23:33.900Z,6.97
2023-04-09T19:26:00.785Z,7.09
2023-04-09T19:28:27.594Z,7.19
2023-04-09T19:30:54.083Z,7.24
2023-04-09T19:33:24.920Z,7.10
2023-04-09T19:35:52.892Z,7.07
2023-04-09T19:38:20.485Z,7.01
2023-04-09T19:40:47.471Z,6.98
2023-04-09T19:43:14.097Z,7.15
2023-04-09T19:45:42.398Z,7.01
2023-04-09T19:48:09.818Z,7.10
2023-04-09T19:50:41.246Z,7.03
2023-04-09T19:53:07.784Z,7.13
2023-04-09T19:55:35.156Z,7.08
2023-04-09T19:58:02.943Z,7.16
2023-04-09T20:00:29.422Z,7.01
2023-04-09T20:02:57.222Z,6.94
2023-04-09T20:05:23.997Z,6.52
2023-04-09T20:07:51.696Z,6.17
2023-04-09T20:10:18.402Z,5.97
2023-04-09T20:12:51.930Z,5.87
2023-04-09T20:15:21.764Z,5.97
2023-04-09T20:17:51.219Z,6.05
2023-04-09T20:20:19.787Z,5.71
2023-04-09T20:22:55.593Z,5.85
2023-04-09T20:25:24.280Z,5.96
2023-04-09T20:27:54.426Z,6.05
2023-04-09T20:30:21.270Z,6.20
2023-04-09T20:32:49.099Z,6.14
2023-04-09T20:35:15.903Z,5.85
2023-04-09T20:37:42.431Z,5.64
2023-04-09T20:40:09.256Z,5.51
2023-04-09T20:42:35.962Z,5.79
2023-04-09T20:45:02.934Z,5.69
2023-04-09T20:47:30.490Z,5.73
2023-04-09T20:50:01.085Z,5.77
2023-04-09T20:52:30.744Z,5.70
2023-04-09T20:54:57.538Z,5.84
2023-04-09T20:57:24.037Z,5.78
2023-04-09T20:59:50.765Z,5.97
2023-04-09T21:02:17.683Z,6.00
2023-04-09T21:04:44.304Z,6.04
2023-04-09T21:07:11.029Z,6.13
2023-04-09T21:09:38.303Z,6.16
2023-04-09T21:12:04.789Z,6.21
2023-04-09T21:14:34.049Z,6.08
2023-04-09T21:17:00.628Z,6.23
2023-04-09T21:19:27.064Z,6.20
2023-04-09T21:21:54.319Z,6.21
2023-04-09T21:24:20.771Z,6.04
2023-04-09T21:26:51.647Z,5.93
2023-04-09T21:29:19.638Z,5.98
2023-04-09T21:31:47.637Z,6.01
2023-04-09T21:34:14.121Z,5.98
2023-04-09T21:36:40.724Z,5.93
2023-04-09T21:39:07.694Z,5.90
2023-04-09T21:41:34.164Z,5.81
2023-04-09T21:44:07.875Z,5.80
2023-04-09T21:46:36.751Z,5.82
2023-04-09T21:49:04.140Z,5.78
2023-04-09T21:51:31.399Z,5.84
2023-04-09T21:54:04.939Z,5.82
2023-04-09T21:56:32.615Z,5.69
2023-04-09T21:59:00.706Z,5.67
2023-04-09T22:01:29.691Z,5.71
2023-04-09T22:04:00.432Z,5.70
2023-04-09T22:06:28.520Z,5.53
2023-04-09T22:08:57.355Z,5.66
2023-04-09T22:11:27.220Z,5.55
2023-04-09T22:13:55.018Z,5.46
2023-04-09T22:16:23.536Z,5.45
2023-04-09T22:18:50.196Z,5.45
2023-04-09T22:21:17.450Z,5.43
2023-04-09T22:23:44.228Z,5.28
2023-04-09T22:26:10.823Z,5.24
2023-04-09T22:28:38.314Z,5.41
2023-04-09T22:31:05.165Z,5.54
2023-04-09T22:33:31.759Z,5.51
2023-04-09T22:35:59.297Z,5.34
2023-04-09T22:38:26.052Z,5.09
2023-04-09T22:40:52.639Z,4.97
2023-04-09T22:43:19.565Z,4.61
2023-04-09T22:45:54.250Z,4.21
2023-04-09T22:48:21.951Z,4.48
2023-04-09T22:50:49.554Z,4.62
2023-04-09T22:53:19.629Z,4.80
2023-04-09T22:55:54.353Z,4.83
2023-04-09T22:58:21.081Z,4.82
2023-04-09T23:00:48.145Z,4.78
2023-04-09T23:03:14.904Z,4.51
2023-04-09T23:05:41.858Z,4.43
2023-04-09T23:08:08.883Z,4.23
2023-04-09T23:10:36.055Z,4.48
2023-04-09T23:13:02.629Z,4.63
2023-04-09T23:15:29.114Z,4.48
2023-04-09T23:17:55.943Z,4.52
2023-04-09T23:20:23.002Z,4.65
2023-04-09T23:22:49.993Z,4.65
2023-04-09T23:25:16.736Z,4.59
2023-04-09T23:27:43.677Z,4.54
2023-04-09T23:30:10.667Z,4.60
2023-04-09T23:32:37.228Z,4.56
2023-04-09T23:35:04.183Z,4.50
2023-04-09T23:37:31.166Z,4.36
2023-04-09T23:39:57.625Z,4.26
2023-04-09T23:42:24.149Z,4.40
2023-04-09T23:44:50.606Z,4.26
2023-04-09T23:47:17.350Z,4.43
2023-04-09T23:49:44.532Z,4.44
2023-04-09T23:52:10.930Z,4.43
2023-04-09T23:54:37.302Z,4.01
2023-04-09T23:57:03.737Z,3.82
2023-04-09T23:59:33.741Z,3.63
